Forbes Field
KFOE : now visible

Airfield :











YOU CAN JOIN US ON...

 
LOGIN :

Register | Disclaimer

   EN    FR    IT 

 









Legend :    VFR   Marginal VFR   IFR   Intensive IFR   Very Intensive IFR
Visi :
Ceiling :
>= 8 km
>= 3000ft
5 to 8 km
1000 to 3000 ft
1500m to 5 km
500 to 1000 ft
800 to 1500m
200 to 500 ft
< 800m
< 200 ft
Symbols :   Thunderstorms  Fog  Heavy snow  Heavy precipitations  Wind > 20 kt






- Airport Elevation : 1078 ft
- IATA code : FOE


KFOE - Forbes Field

CURRENT METAR :
  • 070153Z 00000KT 10SM OVC015 04/01 A3005 RMK AO2 SLP185 T00440006

EXPIRED METARs :
  • 070123Z 00000KT 10SM OVC015 05/01 A3005 RMK AO2 T00500006
  • 070053Z 00000KT 10SM OVC014 05/00 A3004 RMK AO2 SLP179 T00500000
  • 062353Z 36003KT 10SM OVC014 04/00 A3001 RMK AO2 SLP171 T00440000 10056 20039 53013

TAF KFOE
Valid from the 07 at 00:00 until the 08 at 00:00 UTC


062323Z 0700/0724 32005KT P6SM OVC015
TEMPO 0701/0705 5SM BR SCT015
FM070500 36004KT 6SM BR OVC015
KZKC FIR / North America



MET'MAP, your aeronautical weather chart ! - Copyright ORBIFLY December 2007 - Disclaimer

ORBIFLY MET'MAP TEAM :

Programming & Development : Alexandra Zaïnal
Original concept : Baudouin d'Aumeries
Technical & hardware support : Manuel Goepfert
Assistance : Marc-Olivier Méhu




SOURCES & CREDITS :

   NOAA       Earth
Advisory